createdAt,value
2022-11-04T00:03:54.461Z,98785.44
2022-11-04T00:08:57.838Z,98775.22
2022-11-04T00:13:59.428Z,98780.34
2022-11-04T00:19:01.672Z,98771.09
2022-11-04T00:24:22.174Z,98762.13
2022-11-04T00:29:23.754Z,98759.28
2022-11-04T00:34:25.254Z,98755.19
2022-11-04T00:39:26.738Z,98751.03
2022-11-04T00:44:28.304Z,98761.13
2022-11-04T00:49:29.831Z,98757.69
2022-11-04T00:54:31.342Z,98753.00
2022-11-04T00:59:32.859Z,98750.47
2022-11-04T01:04:34.488Z,98747.56
2022-11-04T01:09:35.991Z,98745.03
2022-11-04T01:14:37.588Z,98742.72
2022-11-04T01:19:39.107Z,98741.47
2022-11-04T01:24:40.610Z,98733.38
2022-11-04T01:29:42.135Z,98732.69
2022-11-04T01:34:43.829Z,98724.66
2022-11-04T01:39:45.450Z,98718.31
2022-11-04T01:44:56.378Z,98711.38
2022-11-04T01:50:04.766Z,98703.03
2022-11-04T01:55:13.179Z,98712.97
2022-11-04T02:00:15.851Z,98698.97
2022-11-04T02:05:18.588Z,98700.69
2022-11-04T02:10:23.051Z,98698.31
2022-11-04T02:15:37.437Z,98700.28
2022-11-04T02:20:47.954Z,98714.13
2022-11-04T02:25:58.330Z,98731.63
2022-11-04T02:31:08.993Z,98748.03
2022-11-04T02:36:31.604Z,98739.25
2022-11-04T02:41:42.004Z,98718.66
2022-11-04T02:46:49.649Z,98705.03
2022-11-04T02:52:40.518Z,98725.06
2022-11-04T02:57:44.733Z,98815.97
2022-11-04T03:02:53.333Z,98832.09
2022-11-04T03:07:58.239Z,98822.97
2022-11-04T03:13:06.156Z,98840.81
2022-11-04T03:18:21.151Z,98809.88
2022-11-04T03:23:22.754Z,98819.38
2022-11-04T03:28:51.528Z,98825.31
2022-11-04T03:33:55.341Z,98818.84
2022-11-04T03:38:56.856Z,98827.91
2022-11-04T03:43:58.379Z,98810.69
2022-11-04T03:49:02.063Z,98817.19
2022-11-04T03:54:04.593Z,98817.72
2022-11-04T03:59:43.559Z,98819.91
2022-11-04T04:04:57.369Z,98816.44
2022-11-04T04:10:37.240Z,98808.00
2022-11-04T04:15:52.908Z,98808.91
2022-11-04T04:20:59.224Z,98811.94
2022-11-04T04:26:23.592Z,98820.81
2022-11-04T04:31:45.441Z,98818.16
2022-11-04T04:37:20.975Z,98816.28
2022-11-04T04:42:41.421Z,98828.88
2022-11-04T04:47:45.496Z,98832.75
2022-11-04T04:52:50.718Z,98838.28
2022-11-04T04:57:52.213Z,98845.75
2022-11-04T05:02:53.781Z,98842.31
2022-11-04T05:07:55.311Z,98854.13
2022-11-04T05:13:15.195Z,98846.34
2022-11-04T05:18:16.818Z,98848.50
2022-11-04T05:23:18.387Z,98849.81
2022-11-04T05:28:19.913Z,98854.84
2022-11-04T05:33:21.485Z,98843.22
2022-11-04T05:38:23.030Z,98860.69
2022-11-04T05:43:24.658Z,98845.13
2022-11-04T05:48:26.687Z,98848.59
2022-11-04T05:58:34.880Z,98837.97
2022-11-04T06:03:36.577Z,98826.22
2022-11-04T06:08:44.003Z,98840.56
2022-11-04T06:13:46.716Z,98848.50
2022-11-04T06:18:48.347Z,98854.94
2022-11-04T06:23:50.006Z,98857.41
2022-11-04T06:28:51.839Z,98849.81
2022-11-04T06:33:53.410Z,98851.13
2022-11-04T06:38:59.915Z,98852.75
2022-11-04T06:44:04.738Z,98860.03
2022-11-04T06:49:07.891Z,98863.97
2022-11-04T06:54:09.748Z,98858.22
2022-11-04T06:59:19.341Z,98859.19
2022-11-04T07:04:20.972Z,98836.97
2022-11-04T07:09:22.663Z,98835.53
2022-11-04T07:14:24.387Z,98840.41
2022-11-04T07:19:25.892Z,98832.16
2022-11-04T07:24:27.494Z,98840.16
2022-11-04T07:29:29.105Z,98846.81
2022-11-04T07:34:30.645Z,98845.44
2022-11-04T07:39:32.188Z,98848.00
2022-11-04T07:44:33.745Z,98855.53
2022-11-04T07:49:35.363Z,98870.75
2022-11-04T07:54:37.211Z,98885.13
2022-11-04T07:59:38.793Z,98891.06
2022-11-04T08:04:40.344Z,98904.88
2022-11-04T08:09:41.869Z,98887.66
2022-11-04T08:14:43.480Z,98872.72
2022-11-04T08:19:45.097Z,98880.06
2022-11-04T08:24:47.355Z,98893.06
2022-11-04T08:29:49.065Z,98896.84
2022-11-04T08:34:50.653Z,98869.38
2022-11-04T08:39:52.238Z,98874.06
2022-11-04T08:44:53.889Z,98870.31
2022-11-04T08:49:55.471Z,98875.41
2022-11-04T08:54:57.594Z,98881.47
2022-11-04T08:59:59.283Z,98861.72
2022-11-04T09:05:01.878Z,98858.50
2022-11-04T09:10:05.943Z,98852.66
2022-11-04T09:15:08.081Z,98863.09
2022-11-04T09:20:10.382Z,98872.03
2022-11-04T09:25:11.936Z,98860.25
2022-11-04T09:30:13.900Z,98855.09
2022-11-04T09:35:17.702Z,98862.78
2022-11-04T09:40:22.514Z,98866.56
2022-11-04T09:45:28.176Z,98865.09
2022-11-04T09:50:38.225Z,98890.63
2022-11-04T09:55:50.456Z,98902.69
2022-11-04T10:01:12.879Z,98912.41
2022-11-04T10:06:39.369Z,98920.06
2022-11-04T10:12:23.740Z,98920.91
2022-11-04T10:17:37.545Z,98926.41
2022-11-04T10:22:45.435Z,98940.22
2022-11-04T10:27:49.094Z,98934.00
2022-11-04T10:32:59.746Z,98934.63
2022-11-04T10:38:24.082Z,98940.56
2022-11-04T10:43:35.829Z,98942.97
2022-11-04T10:48:50.420Z,98942.41
2022-11-04T10:53:57.784Z,98949.00
2022-11-04T10:59:20.050Z,98959.78
2022-11-04T11:04:36.602Z,98962.09
2022-11-04T11:09:52.582Z,98961.25
2022-11-04T11:14:56.289Z,98958.84
2022-11-04T11:20:02.810Z,98949.94
2022-11-04T11:25:22.449Z,98944.75
2022-11-04T11:30:33.904Z,98941.63
2022-11-04T11:35:42.259Z,98950.28
2022-11-04T11:41:10.448Z,98952.19
2022-11-04T11:46:05.930Z,98945.09
2022-11-04T11:51:07.742Z,98937.16
2022-11-04T11:56:24.852Z,98946.03
2022-11-04T12:01:37.797Z,98952.25
2022-11-04T12:12:33.432Z,98953.75
2022-11-04T12:17:46.618Z,98944.91
2022-11-04T12:22:50.792Z,98947.88
2022-11-04T12:28:27.529Z,98945.88
2022-11-04T12:33:35.008Z,98950.63
2022-11-04T12:38:59.488Z,98939.44
2022-11-04T12:44:19.739Z,98946.59
2022-11-04T12:49:24.357Z,98932.84
2022-11-04T12:54:25.814Z,98932.25
2022-11-04T13:00:06.431Z,98937.44
2022-11-04T13:05:44.946Z,98920.28
2022-11-04T13:10:55.826Z,98917.38
2022-11-04T13:16:02.228Z,98920.72
2022-11-04T13:21:10.126Z,98926.47
2022-11-04T13:26:15.542Z,98924.31
2022-11-04T13:31:27.069Z,98934.09
2022-11-04T13:36:35.002Z,98936.06
2022-11-04T13:41:58.122Z,98950.06
2022-11-04T13:47:03.650Z,98952.53
2022-11-04T13:52:11.862Z,98964.81
2022-11-04T13:57:20.547Z,98962.41
2022-11-04T14:02:22.103Z,98964.09
2022-11-04T14:07:58.472Z,98974.50
2022-11-04T14:13:35.140Z,98958.28
2022-11-04T14:18:41.143Z,98976.63
2022-11-04T14:23:45.889Z,98972.34
2022-11-04T14:28:50.697Z,98981.59
2022-11-04T14:33:56.363Z,98982.78
2022-11-04T14:39:09.943Z,99003.16
2022-11-04T14:44:23.498Z,98999.25
2022-11-04T14:49:39.365Z,99009.59
2022-11-04T14:54:41.549Z,99025.00
2022-11-04T14:59:43.949Z,99028.84
2022-11-04T15:04:53.329Z,99033.59
2022-11-04T15:09:54.954Z,99042.28
2022-11-04T15:14:57.885Z,99041.69
2022-11-04T15:20:02.558Z,99039.00
2022-11-04T15:25:06.150Z,99047.66
2022-11-04T15:30:18.417Z,99051.19
2022-11-04T15:35:20.663Z,99058.88
2022-11-04T15:40:22.885Z,99055.78
2022-11-04T15:45:37.455Z,99058.63
2022-11-04T15:50:39.315Z,99060.88
2022-11-04T15:55:41.081Z,99061.69
2022-11-04T16:00:51.918Z,99068.31
2022-11-04T16:06:03.848Z,99074.69
2022-11-04T16:11:13.223Z,99086.16
2022-11-04T16:16:25.041Z,99074.44
2022-11-04T16:21:28.225Z,99089.47
2022-11-04T16:26:38.689Z,99077.00
2022-11-04T16:31:40.218Z,99092.47
2022-11-04T16:36:41.805Z,99098.78
2022-11-04T16:41:43.852Z,99111.53
2022-11-04T16:46:45.665Z,99112.63
2022-11-04T16:51:51.276Z,99120.97
2022-11-04T16:56:54.728Z,99132.84
2022-11-04T17:01:56.642Z,99131.44
2022-11-04T17:06:58.301Z,99141.81
2022-11-04T17:11:59.841Z,99133.47
2022-11-04T17:17:01.982Z,99145.13
2022-11-04T17:22:07.547Z,99141.66
2022-11-04T17:27:09.092Z,99144.38
2022-11-04T17:32:10.710Z,99156.78
2022-11-04T17:37:13.538Z,99152.56
2022-11-04T17:42:33.792Z,99162.31
2022-11-04T17:47:36.167Z,99167.09
2022-11-04T17:52:38.403Z,99171.69
2022-11-04T17:57:39.979Z,99169.59
2022-11-04T18:02:42.784Z,99162.88
2022-11-04T18:07:44.510Z,99162.66
2022-11-04T18:12:46.136Z,99167.19
2022-11-04T18:17:49.999Z,99168.22
2022-11-04T18:22:51.583Z,99168.22
2022-11-04T18:27:53.179Z,99169.94
2022-11-04T18:32:54.767Z,99171.19
2022-11-04T18:37:56.363Z,99169.50
2022-11-04T18:42:58.001Z,99168.88
2022-11-04T18:47:59.557Z,99158.28
2022-11-04T18:53:01.382Z,99152.97
2022-11-04T18:58:03.555Z,99156.97
2022-11-04T19:03:05.275Z,99161.84
2022-11-04T19:08:07.610Z,99155.72
2022-11-04T19:13:18.329Z,99150.78
2022-11-04T19:18:20.441Z,99162.16
2022-11-04T19:23:22.145Z,99161.75
2022-11-04T19:28:47.527Z,99174.28
2022-11-04T19:33:46.532Z,99172.69
2022-11-04T19:38:51.475Z,99182.44
2022-11-04T19:43:53.197Z,99188.06
2022-11-04T19:48:58.487Z,99195.53
2022-11-04T19:54:00.140Z,99201.41
2022-11-04T19:59:06.016Z,99209.59
2022-11-04T20:04:08.119Z,99212.03
2022-11-04T20:09:12.910Z,99224.19
2022-11-04T20:14:17.755Z,99234.19
2022-11-04T20:19:22.963Z,99229.34
2022-11-04T20:24:25.309Z,99240.03
2022-11-04T20:29:27.277Z,99244.97
2022-11-04T20:34:32.915Z,99249.38
2022-11-04T20:39:34.637Z,99255.13
2022-11-04T20:44:36.274Z,99264.47
2022-11-04T20:49:38.467Z,99267.69
2022-11-04T20:54:40.073Z,99273.78
2022-11-04T20:59:41.715Z,99273.91
2022-11-04T21:04:43.288Z,99286.28
2022-11-04T21:09:44.985Z,99291.09
2022-11-04T21:14:46.855Z,99293.34
2022-11-04T21:19:48.620Z,99301.06
2022-11-04T21:24:50.196Z,99293.47
2022-11-04T21:29:52.528Z,99299.78
2022-11-04T21:34:54.857Z,99310.09
2022-11-04T21:39:56.543Z,99306.50
2022-11-04T21:44:58.179Z,99310.88
2022-11-04T21:50:00.568Z,99305.59
2022-11-04T21:55:02.341Z,99318.19
2022-11-04T22:00:06.361Z,99314.88
2022-11-04T22:05:12.201Z,99315.25
2022-11-04T22:10:13.981Z,99322.38
2022-11-04T22:15:36.158Z,99334.94
2022-11-04T22:20:37.885Z,99339.78
2022-11-04T22:25:39.658Z,99332.47
2022-11-04T22:30:41.713Z,99328.97
2022-11-04T22:35:46.973Z,99338.19
2022-11-04T22:40:57.279Z,99344.72
2022-11-04T22:46:04.981Z,99348.56
2022-11-04T22:51:09.101Z,99342.72
2022-11-04T22:56:12.756Z,99346.84
2022-11-04T23:01:15.768Z,99346.47
2022-11-04T23:06:17.480Z,99343.00
2022-11-04T23:11:41.577Z,99343.56
2022-11-04T23:17:04.861Z,99353.16
2022-11-04T23:22:26.154Z,99351.41
2022-11-04T23:27:46.199Z,99357.13
2022-11-04T23:32:53.706Z,99354.78
2022-11-04T23:37:59.774Z,99358.81
2022-11-04T23:43:01.418Z,99371.66
2022-11-04T23:48:21.820Z,99364.59
2022-11-04T23:53:41.973Z,99374.44
2022-11-04T23:59:02.393Z,99379.97
